Time;durP1;ratioP1;P1;durP2;ratioP2;P2;SDS_P1;SDS_P2;PMS_P1;PMS_P2;Temp;Humidity;BMP_temperature;BMP_pressure;BME280_temperature;BME280_humidity;BME280_pressure;Samples;Min_cycle;Max_cycle;Signal;HPM_P1;HPM_P2
2022/11/05 00:10:06;;;;;;;19.25;12.35;;;;;;;7.88;83.12;98488.81;5027204;28;20033;-84
2022/11/05 00:18:00;;;;;;;7.75;6.35;;;;;;;8.32;82.86;98506.59;5019485;28;20045;-84
2022/11/05 00:20:25;;;;;;;13.98;8.82;;;;;;;8.14;84.53;98506.78;5025351;28;20037;-85
2022/11/05 00:25:57;;;;;;;18.77;10.65;;;;;;;8.09;84.49;98512.00;5028668;28;20099;-84
2022/11/05 00:28:24;;;;;;;11.65;7.22;;;;;;;8.30;82.58;98503.34;5009498;28;20155;-84
2022/11/05 00:30:51;;;;;;;16.55;9.65;;;;;;;8.69;80.46;98509.53;5028884;28;20033;-84
2022/11/05 00:33:16;;;;;;;10.77;6.68;;;;;;;9.21;78.87;98516.09;5030484;28;20375;-84
2022/11/05 00:35:42;;;;;;;11.55;6.80;;;;;;;9.40;78.47;98521.91;5028038;28;20033;-84
2022/11/05 00:38:07;;;;;;;10.50;7.07;;;;;;;9.29;78.03;98501.53;5010189;28;20037;-84
2022/11/05 00:40:32;;;;;;;9.95;6.80;;;;;;;9.11;78.54;98515.16;5030211;28;20475;-85
2022/11/05 00:45:42;;;;;;;25.20;13.90;;;;;;;8.01;84.33;98542.47;4997495;28;20040;-84
2022/11/05 00:50:51;;;;;;;10.45;7.35;;;;;;;8.42;83.22;98543.97;5027793;28;20084;-84
2022/11/05 00:53:17;;;;;;;12.73;7.55;;;;;;;8.80;80.98;98545.88;4994939;28;20124;-85
2022/11/05 00:55:44;;;;;;;10.48;7.10;;;;;;;8.86;80.47;98532.41;5030286;28;20469;-84
2022/11/05 00:58:20;;;;;;;11.13;6.97;;;;;;;9.13;79.01;98540.47;5028411;28;20082;-84
2022/11/05 01:00:52;;;;;;;25.40;14.23;;;;;;;8.50;81.80;98554.19;5029157;28;20067;-84
2022/11/05 01:03:21;;;;;;;14.23;8.15;;;;;;;8.80;80.68;98535.25;5017218;28;20045;-84
2022/11/05 01:05:55;;;;;;;21.55;14.45;;;;;;;8.23;82.49;98538.03;5021651;28;20131;-84
2022/11/05 01:08:23;;;;;;;14.52;9.40;;;;;;;8.96;80.66;98564.47;4993242;28;20677;-84
2022/11/05 01:10:52;;;;;;;11.82;8.82;;;;;;;9.14;79.20;98526.13;5016367;28;20044;-85
2022/11/05 01:13:20;;;;;;;20.13;12.35;;;;;;;9.11;78.72;98547.13;5017928;28;20034;-85
2022/11/05 01:15:46;;;;;;;11.73;8.18;;;;;;;8.65;81.65;98546.44;5008259;28;20500;-85
2022/11/05 01:18:12;;;;;;;22.92;14.65;;;;;;;9.00;80.02;98562.13;5005705;28;20038;-84
2022/11/05 01:20:38;;;;;;;13.55;8.30;;;;;;;8.74;81.20;98550.31;5031766;28;20632;-85
2022/11/05 01:23:04;;;;;;;24.10;15.00;;;;;;;8.54;82.09;98567.84;5030799;28;20032;-85
2022/11/05 01:25:30;;;;;;;13.32;9.07;;;;;;;8.82;80.73;98552.56;5032539;28;20064;-85
2022/11/05 01:27:55;;;;;;;14.95;9.40;;;;;;;8.89;80.53;98563.03;5024784;28;20052;-85
2022/11/05 01:30:22;;;;;;;18.02;12.50;;;;;;;9.13;78.93;98568.97;5024319;28;20029;-85
2022/11/05 01:32:47;;;;;;;15.27;9.65;;;;;;;8.84;81.13;98557.66;5027191;28;20104;-84
2022/11/05 01:35:14;;;;;;;12.27;8.57;;;;;;;9.17;79.18;98581.56;5026017;28;20116;-85
2022/11/05 01:37:40;;;;;;;21.05;11.93;;;;;;;9.16;78.46;98571.13;5019698;28;20025;-83
2022/11/05 01:40:09;;;;;;;31.13;16.98;;;;;;;8.36;81.93;98578.69;5011000;28;20025;-83
2022/11/05 01:42:34;;;;;;;12.30;9.38;;;;;;;8.96;80.26;98575.13;5026752;28;20048;-83
2022/11/05 01:45:01;;;;;;;26.83;16.95;;;;;;;8.52;80.65;98576.03;5027785;28;20034;-83
2022/11/05 01:47:35;;;;;;;15.15;9.43;;;;;;;8.79;80.38;98562.88;5026667;28;20026;-83
2022/11/05 01:50:29;;;;;;;13.07;9.18;;;;;;;8.77;81.46;98573.78;5007191;28;20605;-84
2022/11/05 01:53:01;;;;;;;34.67;17.85;;;;;;;8.47;80.90;98551.22;5023672;28;20072;-83
2022/11/05 01:55:30;;;;;;;30.70;19.20;;;;;;;8.19;82.29;98576.00;5023985;28;20029;-84
2022/11/05 01:57:59;;;;;;;15.77;10.77;;;;;;;8.23;82.37;98577.13;5026200;28;20537;-83
2022/11/05 02:00:24;;;;;;;16.85;11.45;;;;;;;8.32;82.09;98581.81;4990211;28;20048;-83
2022/11/05 02:02:49;;;;;;;38.67;21.05;;;;;;;7.55;85.19;98578.00;5009502;28;20033;-83
2022/11/05 02:05:16;;;;;;;16.80;10.70;;;;;;;8.30;82.45;98573.28;5007258;28;20087;-84
2022/11/05 02:07:44;;;;;;;19.70;12.10;;;;;;;8.35;82.01;98577.06;4997432;28;20501;-83
2022/11/05 02:10:16;;;;;;;28.45;18.27;;;;;;;8.56;80.78;98587.81;4991426;28;20037;-83
2022/11/05 02:12:44;;;;;;;14.38;10.32;;;;;;;8.88;79.80;98599.50;5025421;28;20112;-84
2022/11/05 02:15:16;;;;;;;35.13;20.55;;;;;;;8.39;80.94;98587.00;5007799;28;20057;-84
2022/11/05 02:18:12;;;;;;;21.45;11.82;;;;;;;8.55;80.46;98586.19;5025072;28;20037;-83
2022/11/05 02:20:48;;;;;;;26.85;16.13;;;;;;;8.67;80.26;98576.28;5007267;28;20034;-84
2022/11/05 02:23:19;;;;;;;36.20;19.58;;;;;;;8.29;81.19;98592.97;5029318;28;20112;-84
2022/11/05 02:26:06;;;;;;;25.15;15.38;;;;;;;8.30;82.37;98597.22;5026701;28;20033;-84
2022/11/05 02:28:40;;;;;;;23.10;13.90;;;;;;;8.24;80.90;98603.47;5026783;28;20025;-84
2022/11/05 02:31:35;;;;;;;30.48;16.55;;;;;;;8.67;80.51;98604.75;5027982;28;20033;-84
2022/11/05 02:34:15;;;;;;;15.60;10.50;;;;;;;8.93;78.41;98578.25;5027272;28;20052;-84
2022/11/05 02:37:14;;;;;;;16.10;11.13;;;;;;;9.14;78.57;98607.84;5019556;28;20039;-84
2022/11/05 02:39:40;;;;;;;25.30;12.20;;;;;;;8.72;80.02;98612.78;5027373;28;20029;-84
2022/11/05 02:42:38;;;;;;;25.17;14.00;;;;;;;8.47;80.46;98612.41;5028699;28;20036;-84
2022/11/05 02:45:26;;;;;;;18.55;11.02;;;;;;;8.94;79.25;98608.34;5009934;28;20029;-84
2022/11/05 02:48:12;;;;;;;23.95;12.18;;;;;;;8.91;79.26;98606.19;5021564;28;20071;-83
2022/11/05 02:51:16;;;;;;;18.65;11.45;;;;;;;8.84;79.94;98610.88;5008284;28;20021;-83
2022/11/05 02:53:54;;;;;;;16.30;10.60;;;;;;;9.18;78.83;98607.13;4981510;28;20044;-83
2022/11/05 02:56:25;;;;;;;15.98;10.55;;;;;;;9.15;79.03;98593.50;5007139;28;20068;-84
2022/11/05 02:58:50;;;;;;;17.80;12.27;;;;;;;8.40;79.82;98548.72;5028132;28;20115;-84
2022/11/05 03:01:16;;;;;;;21.55;11.98;;;;;;;8.64;81.28;98614.03;4979835;28;20033;-84
2022/11/05 03:03:47;;;;;;;24.98;12.88;;;;;;;8.14;82.32;98607.78;5010255;28;20068;-84
2022/11/05 03:06:22;;;;;;;26.02;13.82;;;;;;;8.41;81.79;98622.13;5029053;28;20025;-84
2022/11/05 03:09:03;;;;;;;25.90;14.63;;;;;;;8.18;83.08;98607.09;5028179;28;20117;-84
2022/11/05 03:11:31;;;;;;;26.10;14.25;;;;;;;8.25;82.52;98594.50;5030255;28;20040;-84
2022/11/05 03:14:31;;;;;;;25.73;13.45;;;;;;;8.74;80.22;98610.69;5024688;28;20496;-84
2022/11/05 03:17:12;;;;;;;23.80;12.45;;;;;;;8.20;82.19;98599.69;5007610;28;20116;-84
2022/11/05 03:19:52;;;;;;;23.35;12.65;;;;;;;8.67;80.79;98599.44;5022983;28;20040;-84
2022/11/05 03:22:25;;;;;;;24.98;14.38;;;;;;;8.64;80.32;98606.03;5006611;28;20041;-84
2022/11/05 03:25:00;;;;;;;20.92;12.27;;;;;;;8.79;79.86;98595.63;5008116;28;20714;-83
2022/11/05 03:27:30;;;;;;;24.67;12.43;;;;;;;8.94;78.90;98603.84;5027926;28;20025;-84
2022/11/05 03:30:05;;;;;;;32.72;16.75;;;;;;;8.55;81.22;98623.44;5024970;28;20418;-83
2022/11/05 03:32:35;;;;;;;35.00;17.70;;;;;;;8.60;80.50;98609.41;5008206;28;20667;-84
2022/11/05 03:35:21;;;;;;;22.27;12.05;;;;;;;8.94;79.64;98624.31;5007157;28;20310;-84
2022/11/05 03:37:50;;;;;;;27.50;13.40;;;;;;;8.86;79.99;98630.88;5022305;28;20424;-84
2022/11/05 03:40:20;;;;;;;19.35;11.70;;;;;;;8.83;79.49;98609.25;5026104;28;20048;-83
2022/11/05 03:42:49;;;;;;;20.98;12.13;;;;;;;8.95;79.24;98618.75;5008525;28;20087;-84
2022/11/05 03:45:20;;;;;;;35.58;16.33;;;;;;;8.47;80.71;98620.38;4989530;28;20045;-83
2022/11/05 03:47:49;;;;;;;32.88;17.42;;;;;;;8.33;81.46;98617.22;5025532;28;20025;-83
2022/11/05 03:50:20;;;;;;;21.95;11.90;;;;;;;8.89;79.40;98610.94;5023660;28;20033;-83
2022/11/05 03:52:58;;;;;;;24.60;12.05;;;;;;;9.05;79.31;98645.53;5018701;28;20104;-83
2022/11/05 03:55:34;;;;;;;21.38;11.75;;;;;;;8.95;79.58;98641.91;5009038;28;20080;-83
2022/11/05 03:58:02;;;;;;;17.75;12.45;;;;;;;8.86;79.79;98646.84;5024926;28;20061;-83
2022/11/05 04:00:28;;;;;;;36.03;19.02;;;;;;;8.63;80.42;98649.63;5003840;28;20504;-83
2022/11/05 04:02:54;;;;;;;40.83;19.92;;;;;;;8.63;80.39;98652.28;5003522;28;20037;-83
2022/11/05 04:05:19;;;;;;;23.38;12.95;;;;;;;8.60;81.03;98646.66;5006892;28;20064;-84
2022/11/05 04:13:24;;;;;;;41.30;21.83;;;;;;;8.36;82.23;98664.59;5007451;28;20489;-84
2022/11/05 04:18:35;;;;;;;47.15;21.45;;;;;;;8.12;83.15;98660.41;5015025;28;20191;-84
2022/11/05 04:26:29;;;;;;;43.15;23.80;;;;;;;7.65;84.75;98686.25;4997087;28;20106;-83
2022/11/05 04:31:39;;;;;;;39.92;20.75;;;;;;;8.00;82.79;98684.34;5026132;28;20049;-83
2022/11/05 04:34:04;;;;;;;27.38;14.90;;;;;;;7.68;84.05;98669.88;5025036;28;20053;-84
2022/11/05 04:36:30;;;;;;;26.52;13.88;;;;;;;8.21;82.02;98689.00;5022614;28;20455;-84
2022/11/05 04:38:55;;;;;;;26.50;14.50;;;;;;;7.93;81.98;98666.94;5002601;28;20048;-84
2022/11/05 04:41:21;;;;;;;32.05;19.60;;;;;;;7.76;82.48;98682.78;4984746;28;20068;-84
2022/11/05 04:43:47;;;;;;;39.35;22.13;;;;;;;7.48;82.96;98680.06;5023779;28;20025;-84
2022/11/05 04:46:13;;;;;;;42.55;22.13;;;;;;;7.84;82.02;98697.56;4969512;28;20033;-83
2022/11/05 04:48:38;;;;;;;33.78;17.35;;;;;;;7.30;83.16;98701.41;4989274;28;20444;-84
2022/11/05 04:51:04;;;;;;;23.98;14.45;;;;;;;7.64;83.60;98691.81;5008790;28;20057;-84
2022/11/05 04:53:30;;;;;;;27.50;14.68;;;;;;;7.85;81.67;98699.97;5025021;28;20033;-84
2022/11/05 04:56:18;;;;;;;45.35;21.83;;;;;;;7.62;82.43;98680.63;4987666;28;21083;-83
2022/11/05 04:58:44;;;;;;;26.85;15.32;;;;;;;8.04;81.00;98679.34;5022782;28;20112;-83
2022/11/05 05:01:15;;;;;;;43.83;21.63;;;;;;;7.91;80.89;98714.97;5007965;28;20029;-84
2022/11/05 05:03:41;;;;;;;36.33;19.08;;;;;;;8.09;80.32;98714.00;4993438;28;20048;-84
2022/11/05 05:06:06;;;;;;;42.33;21.05;;;;;;;7.34;83.79;98714.00;4994947;28;20029;-84
2022/11/05 05:08:32;;;;;;;30.35;16.48;;;;;;;7.77;82.15;98710.97;5025822;28;20035;-84
2022/11/05 05:11:05;;;;;;;25.27;14.35;;;;;;;7.96;80.36;98672.56;5024625;28;20033;-84
2022/11/05 05:13:31;;;;;;;38.05;17.30;;;;;;;7.58;82.71;98698.84;5030574;28;20035;-84
2022/11/05 05:15:57;;;;;;;29.40;15.63;;;;;;;8.03;81.54;98701.69;5007732;28;20034;-84
2022/11/05 05:18:25;;;;;;;40.25;19.23;;;;;;;7.69;81.47;98702.56;5026074;28;20485;-84
2022/11/05 05:23:35;;;;;;;29.67;14.93;;;;;;;8.23;79.46;98688.78;5031973;28;20040;-84
2022/11/05 05:26:00;;;;;;;27.98;14.35;;;;;;;8.02;80.09;98692.88;5014710;28;20025;-84
2022/11/05 05:28:26;;;;;;;36.80;20.05;;;;;;;8.21;79.42;98704.16;4991917;28;20044;-84
2022/11/05 05:30:52;;;;;;;27.10;14.27;;;;;;;7.88;80.59;98701.38;5029545;28;20029;-84
2022/11/05 05:33:17;;;;;;;35.63;18.10;;;;;;;7.02;85.06;98701.28;5032546;28;20037;-84
2022/11/05 05:35:43;;;;;;;40.55;19.33;;;;;;;6.60;86.37;98701.31;5027202;28;20477;-85
2022/11/05 05:38:08;;;;;;;45.45;19.98;;;;;;;6.33;87.00;98699.25;5011265;28;20477;-84
2022/11/05 05:40:34;;;;;;;32.47;15.65;;;;;;;7.37;84.32;98721.50;5030895;28;20028;-84
2022/11/05 05:42:59;;;;;;;24.98;14.18;;;;;;;8.01;81.26;98728.50;4974482;28;20068;-84
2022/11/05 05:45:25;;;;;;;38.67;18.48;;;;;;;7.33;83.84;98744.25;5005938;28;20040;-84
2022/11/05 05:47:50;;;;;;;39.42;18.05;;;;;;;7.42;81.86;98724.28;5029492;28;20029;-84
2022/11/05 05:50:24;;;;;;;31.23;14.70;;;;;;;7.87;81.83;98737.75;5010145;28;20049;-84
2022/11/05 05:52:50;;;;;;;33.08;16.13;;;;;;;7.10;84.64;98719.53;4999403;28;20033;-84
2022/11/05 05:55:15;;;;;;;38.35;18.08;;;;;;;7.53;81.72;98741.25;5009523;28;20540;-84
2022/11/05 05:57:41;;;;;;;37.83;19.15;;;;;;;6.92;84.91;98735.53;5011168;28;20032;-84
2022/11/05 06:00:07;;;;;;;29.02;14.75;;;;;;;7.22;83.92;98758.31;4993634;28;20107;-84
2022/11/05 06:02:32;;;;;;;48.17;19.77;;;;;;;6.66;85.14;98742.03;5010627;28;20623;-84
2022/11/05 06:04:58;;;;;;;30.38;15.70;;;;;;;7.41;84.16;98759.00;4975910;28;20116;-84
2022/11/05 06:07:23;;;;;;;39.13;18.27;;;;;;;6.91;83.71;98749.81;5010482;28;20041;-84
2022/11/05 06:09:49;;;;;;;38.50;17.95;;;;;;;6.47;87.05;98766.97;4994276;28;20482;-84
2022/11/05 06:12:14;;;;;;;36.83;16.80;;;;;;;6.13;86.93;98741.09;5027503;28;20033;-83
2022/11/05 06:14:39;;;;;;;36.78;19.08;;;;;;;6.16;87.50;98751.28;5012375;28;20033;-83
2022/11/05 06:17:08;;;;;;;33.55;15.27;;;;;;;6.45;86.65;98753.13;5009022;28;20056;-83
2022/11/05 06:19:33;;;;;;;36.42;16.77;;;;;;;6.73;85.03;98777.22;5009744;28;20448;-84
2022/11/05 06:21:58;;;;;;;24.10;14.30;;;;;;;6.95;83.91;98786.28;5010217;28;20263;-84
2022/11/05 06:24:24;;;;;;;26.05;14.60;;;;;;;7.46;81.47;98757.31;4991763;28;20144;-84
2022/11/05 06:26:49;;;;;;;30.42;12.48;;;;;;;8.00;79.82;98776.53;4976699;28;20083;-84
2022/11/05 06:29:14;;;;;;;21.70;12.38;;;;;;;7.83;78.49;98725.16;5030277;28;20163;-84
2022/11/05 06:31:40;;;;;;;23.45;12.40;;;;;;;7.79;79.85;98782.47;5027106;28;20030;-84
2022/11/05 06:34:05;;;;;;;26.75;14.88;;;;;;;7.50;81.03;98790.31;4972884;28;20385;-85
2022/11/05 06:36:31;;;;;;;35.47;16.02;;;;;;;6.88;82.33;98793.53;5027004;28;20040;-84
2022/11/05 06:38:56;;;;;;;21.35;12.95;;;;;;;7.01;83.44;98800.50;5009225;28;20025;-84
2022/11/05 06:41:21;;;;;;;23.23;12.68;;;;;;;7.92;79.99;98795.50;5027858;28;20397;-84
2022/11/05 06:43:47;;;;;;;32.53;13.68;;;;;;;7.85;79.08;98792.97;4992758;28;20029;-83
2022/11/05 06:46:12;;;;;;;46.03;19.73;;;;;;;6.20;87.09;98810.75;5009589;28;20393;-84
2022/11/05 06:48:38;;;;;;;26.67;13.55;;;;;;;6.59;86.29;98787.22;4992211;28;21008;-83
2022/11/05 06:51:04;;;;;;;41.58;19.80;;;;;;;6.40;87.81;98813.97;5024298;28;20025;-84
2022/11/05 06:53:30;;;;;;;23.92;12.93;;;;;;;7.04;85.28;98800.03;5010274;28;20038;-84
2022/11/05 06:55:55;;;;;;;37.97;16.52;;;;;;;7.23;81.98;98781.16;5026754;28;20021;-84
2022/11/05 06:58:21;;;;;;;30.58;13.75;;;;;;;6.71;86.54;98805.81;4990381;28;20551;-84
2022/11/05 07:00:47;;;;;;;23.42;13.25;;;;;;;7.41;83.08;98826.22;4999641;28;20173;-84
2022/11/05 07:03:12;;;;;;;25.90;12.90;;;;;;;7.62;81.77;98810.78;5010553;28;20037;-84
2022/11/05 07:05:45;;;;;;;26.67;14.68;;;;;;;7.49;83.13;98804.63;5009067;28;20053;-84
2022/11/05 07:08:10;;;;;;;27.10;12.95;;;;;;;7.17;82.41;98747.56;5025418;28;20040;-84
2022/11/05 07:10:36;;;;;;;23.15;12.13;;;;;;;8.00;81.02;98819.88;5023957;28;20033;-84
2022/11/05 07:13:01;;;;;;;25.08;11.60;;;;;;;8.09;80.09;98813.19;4998850;28;20025;-83
2022/11/05 07:15:27;;;;;;;22.08;12.68;;;;;;;7.77;80.81;98793.34;5002381;28;20622;-84
2022/11/05 07:17:57;;;;;;;30.88;15.13;;;;;;;7.71;82.48;98834.09;5009048;28;20037;-84
2022/11/05 07:20:23;;;;;;;22.10;12.25;;;;;;;7.88;82.48;98836.88;5027124;28;20489;-83
2022/11/05 07:22:48;;;;;;;27.65;13.48;;;;;;;8.03;81.38;98837.22;5028022;28;20137;-84
2022/11/05 07:25:13;;;;;;;31.65;14.27;;;;;;;7.73;82.25;98855.13;4992970;28;20036;-84
2022/11/05 07:27:39;;;;;;;26.33;14.18;;;;;;;7.64;83.61;98867.13;5026898;28;20040;-83
2022/11/05 07:30:07;;;;;;;19.10;11.05;;;;;;;8.03;81.07;98842.53;5026231;28;20084;-83
2022/11/05 07:32:39;;;;;;;29.80;15.25;;;;;;;7.70;83.62;98868.84;5011963;28;20120;-84
2022/11/05 07:35:07;;;;;;;35.55;15.88;;;;;;;7.97;81.98;98856.75;5025676;28;20071;-83
2022/11/05 07:37:32;;;;;;;27.33;12.95;;;;;;;8.09;81.86;98873.50;5026316;28;20025;-83
2022/11/05 07:39:57;;;;;;;21.90;11.82;;;;;;;8.16;81.31;98879.50;5007585;28;20430;-83
2022/11/05 07:42:23;;;;;;;20.55;10.07;;;;;;;8.18;80.57;98851.66;4997137;28;20474;-83
2022/11/05 07:44:51;;;;;;;26.40;12.13;;;;;;;7.84;82.26;98859.66;5012884;28;20025;-83
2022/11/05 07:47:16;;;;;;;20.20;10.85;;;;;;;8.21;81.29;98866.34;5024599;28;20513;-83
2022/11/05 07:49:41;;;;;;;24.17;10.73;;;;;;;8.33;81.13;98891.09;5009471;28;20053;-83
2022/11/05 07:52:07;;;;;;;25.48;12.15;;;;;;;8.18;82.19;98888.88;5011154;28;20041;-84
2022/11/05 07:54:32;;;;;;;28.55;12.43;;;;;;;8.40;81.57;98906.94;4994613;28;20036;-83
2022/11/05 07:56:57;;;;;;;22.27;11.55;;;;;;;8.46;81.05;98904.16;5006644;28;20037;-84
2022/11/05 07:59:23;;;;;;;31.13;14.43;;;;;;;8.03;82.71;98885.06;5028366;28;20565;-82
2022/11/05 08:01:48;;;;;;;34.05;15.27;;;;;;;7.92;83.59;98899.16;4992639;28;20092;-82
2022/11/05 08:04:13;;;;;;;32.88;16.48;;;;;;;8.18;83.29;98909.34;5024684;28;20026;-83
2022/11/05 08:06:39;;;;;;;22.40;11.23;;;;;;;8.62;80.24;98894.63;5008566;28;20072;-83
2022/11/05 08:09:04;;;;;;;24.55;11.40;;;;;;;8.48;81.02;98910.03;5024128;28;20037;-83
2022/11/05 08:11:30;;;;;;;19.52;10.73;;;;;;;8.17;82.54;98863.31;5025225;28;20072;-84
2022/11/05 08:13:55;;;;;;;29.60;14.35;;;;;;;8.39;80.44;98868.09;5024548;28;20021;-83
2022/11/05 08:16:21;;;;;;;30.15;14.23;;;;;;;8.11;80.72;98827.03;4986494;28;20040;-84
2022/11/05 08:18:47;;;;;;;28.00;13.70;;;;;;;8.24;83.03;98903.09;5006558;28;20111;-84
2022/11/05 08:21:12;;;;;;;28.40;13.25;;;;;;;8.57;81.63;98924.59;4977417;28;20089;-85
2022/11/05 08:23:38;;;;;;;36.00;15.85;;;;;;;8.07;85.42;98915.44;5027553;28;20124;-85
2022/11/05 08:26:04;;;;;;;29.85;13.68;;;;;;;8.66;82.03;98920.53;5001843;28;20034;-84
2022/11/05 08:28:29;;;;;;;17.85;11.13;;;;;;;8.79;80.87;98917.63;5020939;28;20065;-85
2022/11/05 08:30:55;;;;;;;23.17;10.80;;;;;;;9.02;79.62;98916.75;5002601;28;20564;-85
2022/11/05 08:33:22;;;;;;;21.52;10.40;;;;;;;8.83;80.21;98923.28;5026155;28;20025;-85
2022/11/05 08:35:48;;;;;;;17.65;10.10;;;;;;;9.17;79.44;98937.53;5020907;28;20032;-85
2022/11/05 08:38:16;;;;;;;24.13;11.68;;;;;;;8.85;80.25;98921.19;5014966;28;20031;-85
2022/11/05 08:40:44;;;;;;;20.70;10.50;;;;;;;9.03;80.44;98947.66;5029665;28;20029;-85
2022/11/05 08:43:11;;;;;;;20.10;9.75;;;;;;;8.97;80.52;98945.94;5010396;28;20065;-84
2022/11/05 08:45:37;;;;;;;19.08;9.85;;;;;;;9.11;79.24;98935.84;5027295;28;20029;-85
2022/11/05 08:48:14;;;;;;;24.25;12.82;;;;;;;9.05;80.21;98957.03;5027083;28;20375;-85
2022/11/05 08:50:40;;;;;;;22.25;10.75;;;;;;;8.81;81.36;98958.13;5015139;28;20498;-85
2022/11/05 08:53:07;;;;;;;16.50;9.68;;;;;;;9.19;79.68;98957.56;5010490;28;20104;-85
2022/11/05 08:55:32;;;;;;;21.92;10.77;;;;;;;8.98;80.63;98955.53;5001360;28;20028;-85
2022/11/05 08:58:11;;;;;;;20.90;9.38;;;;;;;9.13;79.02;98944.41;5033372;28;20041;-85
2022/11/05 09:00:37;;;;;;;18.83;10.10;;;;;;;9.18;79.19;98934.63;4997227;28;20432;-85
2022/11/05 09:03:05;;;;;;;20.45;11.63;;;;;;;9.16;79.84;98950.03;5013282;28;20033;-86
2022/11/05 09:05:36;;;;;;;15.00;8.80;;;;;;;9.37;79.46;98956.59;5029589;28;20034;-84
2022/11/05 09:08:22;;;;;;;13.43;8.25;;;;;;;9.37;79.47;98956.59;5032933;28;20037;-85
2022/11/05 09:10:48;;;;;;;16.33;9.15;;;;;;;9.34;78.84;98959.72;5010309;28;20048;-85
2022/11/05 09:13:15;;;;;;;16.48;9.65;;;;;;;9.29;78.90;98970.25;5015782;28;20037;-85
2022/11/05 09:15:41;;;;;;;22.17;8.95;;;;;;;9.10;78.05;98945.66;5012460;28;20109;-84
2022/11/05 09:18:11;;;;;;;25.80;10.15;;;;;;;9.00;79.25;98964.91;5014862;28;20452;-85
2022/11/05 09:20:38;;;;;;;26.15;9.80;;;;;;;9.19;78.20;98970.06;5026801;28;20061;-84
2022/11/05 09:23:04;;;;;;;25.48;8.13;;;;;;;8.89;78.58;98944.44;5014823;28;20484;-82
2022/11/05 09:25:29;;;;;;;11.55;7.07;;;;;;;9.00;77.85;98948.09;5011801;28;20033;-83
2022/11/05 09:28:08;;;;;;;25.85;7.78;;;;;;;8.98;78.25;98958.19;4999826;28;20041;-83
2022/11/05 09:30:33;;;;;;;18.60;8.88;;;;;;;9.10;77.76;98955.50;5030179;28;20389;-83
2022/11/05 09:32:58;;;;;;;24.63;8.57;;;;;;;9.06;78.90;98971.16;5009318;28;20037;-83
2022/11/05 09:35:24;;;;;;;16.75;7.65;;;;;;;8.81;80.19;98979.41;5024169;28;20029;-82
2022/11/05 09:37:49;;;;;;;19.67;7.30;;;;;;;8.97;78.78;98975.22;4994335;28;20048;-83
2022/11/05 09:40:16;;;;;;;17.42;8.23;;;;;;;8.75;79.25;98952.91;5003238;28;20038;-83
2022/11/05 09:42:47;;;;;;;15.13;7.78;;;;;;;8.76;78.99;98946.53;5012301;28;20137;-83
2022/11/05 09:45:17;;;;;;;19.17;8.50;;;;;;;8.77;80.27;98970.28;4990451;28;20048;-84
2022/11/05 09:47:50;;;;;;;11.60;7.13;;;;;;;9.11;78.28;98968.56;5026962;28;20139;-84
2022/11/05 09:50:29;;;;;;;12.27;6.07;;;;;;;8.96;79.17;98973.59;5027352;28;20037;-83
2022/11/05 09:52:55;;;;;;;13.75;6.57;;;;;;;9.01;79.32;98979.03;5030470;28;20025;-83
2022/11/05 09:55:31;;;;;;;14.32;6.57;;;;;;;9.12;78.54;98980.84;5012236;28;20024;-83
2022/11/05 09:57:59;;;;;;;10.13;5.40;;;;;;;8.70;78.76;98913.72;5021070;28;20184;-83
2022/11/05 10:00:25;;;;;;;12.35;4.65;;;;;;;8.99;78.61;98979.28;5016143;28;20034;-83
2022/11/05 10:02:55;;;;;;;14.25;4.82;;;;;;;9.05;78.76;98972.19;5016898;28;20079;-83
2022/11/05 10:05:23;;;;;;;10.40;4.40;;;;;;;9.02;79.04;98981.44;5028658;28;20033;-84
2022/11/05 10:07:54;;;;;;;10.27;3.65;;;;;;;9.13;78.63;98982.47;5026007;28;20072;-84
2022/11/05 10:10:20;;;;;;;9.77;4.53;;;;;;;9.15;78.34;98984.91;5004423;28;20611;-83
2022/11/05 10:12:51;;;;;;;11.23;3.92;;;;;;;9.19;78.72;98986.03;5023409;28;20076;-83
2022/11/05 10:16:05;;;;;;;5.15;3.78;;;;;;;9.17;78.39;98983.63;5023077;28;20033;-83
2022/11/05 10:18:35;;;;;;;10.82;4.07;;;;;;;9.13;79.15;98987.00;5015706;28;22094;-83
2022/11/05 10:21:04;;;;;;;10.57;4.28;;;;;;;9.14;79.01;98972.63;5022135;28;20037;-82
2022/11/05 10:23:29;;;;;;;11.82;3.80;;;;;;;9.28;78.62;98966.81;5000829;28;20021;-83
2022/11/05 10:26:09;;;;;;;8.20;3.38;;;;;;;9.30;78.27;98950.59;5021657;28;20029;-83
2022/11/05 10:28:35;;;;;;;11.07;3.60;;;;;;;9.40;78.17;98977.41;5009069;28;20061;-83
2022/11/05 10:31:04;;;;;;;9.40;3.70;;;;;;;9.50;77.95;98980.28;5021107;28;20037;-83
2022/11/05 10:33:39;;;;;;;9.60;3.45;;;;;;;9.66;76.95;98982.16;5025337;28;20803;-83
2022/11/05 10:36:09;;;;;;;9.38;3.22;;;;;;;9.44;78.46;98973.22;5023595;28;20390;-82
2022/11/05 10:38:34;;;;;;;10.32;3.00;;;;;;;9.65;77.75;98986.66;5010247;28;20033;-83
2022/11/05 10:41:22;;;;;;;8.63;2.97;;;;;;;9.68;77.53;98980.88;5005566;28;20076;-83
2022/11/05 10:44:13;;;;;;;8.18;2.70;;;;;;;9.53;75.95;98977.13;5020107;28;20490;-83
2022/11/05 10:46:52;;;;;;;11.07;3.08;;;;;;;9.57;75.60;98978.25;4965561;28;20051;-83
2022/11/05 10:49:42;;;;;;;5.97;2.80;;;;;;;9.69;75.81;99001.16;5024753;28;20555;-83
2022/11/05 10:52:34;;;;;;;5.93;2.72;;;;;;;9.70;75.81;98994.75;5020382;28;20025;-83
2022/11/05 10:55:02;;;;;;;7.90;3.33;;;;;;;9.62;75.52;98987.16;5027716;28;20029;-82
2022/11/05 10:57:37;;;;;;;7.80;3.13;;;;;;;9.70;74.85;98975.28;5024249;28;20120;-83
2022/11/05 11:00:15;;;;;;;8.40;3.22;;;;;;;9.95;74.72;99001.59;5005431;28;20032;-83
2022/11/05 11:02:58;;;;;;;8.10;3.55;;;;;;;9.95;74.79;98983.75;5011150;28;20025;-82
2022/11/05 11:05:27;;;;;;;7.93;3.10;;;;;;;10.11;74.47;99003.50;5023320;28;20410;-82
2022/11/05 11:08:14;;;;;;;7.18;2.92;;;;;;;10.20;73.16;98997.53;5021836;28;20091;-82
2022/11/05 11:10:50;;;;;;;9.60;3.13;;;;;;;10.20;71.95;98976.19;5003701;28;20111;-81
2022/11/05 11:13:28;;;;;;;12.75;2.60;;;;;;;10.34;72.53;98992.69;5025999;28;20037;-82
2022/11/05 11:16:11;;;;;;;7.13;3.00;;;;;;;10.12;72.52;98991.78;5028899;28;20048;-82
2022/11/05 11:18:40;;;;;;;9.40;2.78;;;;;;;9.92;72.14;98984.22;5013829;28;20033;-82
2022/11/05 11:21:13;;;;;;;5.22;3.08;;;;;;;9.71;72.39;98974.25;5009609;28;20370;-82
2022/11/05 11:23:40;;;;;;;9.40;3.60;;;;;;;9.76;71.72;98979.69;5024101;28;20112;-82
2022/11/05 11:26:07;;;;;;;9.18;2.78;;;;;;;9.91;71.99;98985.28;5008590;28;20053;-81
2022/11/05 11:28:44;;;;;;;9.88;5.20;;;;;;;10.02;71.43;98973.75;5024750;28;20036;-82
2022/11/05 11:31:19;;;;;;;6.75;3.35;;;;;;;10.35;72.25;98991.66;5025048;28;20030;-82
2022/11/05 11:33:48;;;;;;;5.68;3.13;;;;;;;10.26;71.62;98977.91;5024995;28;20167;-82
2022/11/05 11:36:17;;;;;;;6.35;3.08;;;;;;;10.48;71.40;98985.97;5021241;28;20030;-82
2022/11/05 11:38:43;;;;;;;7.30;3.10;;;;;;;10.45;70.97;98979.25;5007498;28;20061;-82
2022/11/05 11:41:32;;;;;;;5.82;2.88;;;;;;;10.44;70.64;98985.63;5005273;28;20453;-82
2022/11/05 11:44:13;;;;;;;15.45;3.92;;;;;;;10.52;71.30;98998.59;5020599;28;20040;-82
2022/11/05 11:46:39;;;;;;;12.70;3.20;;;;;;;10.42;70.75;98998.41;5008372;28;20930;-82
2022/11/05 11:49:05;;;;;;;9.38;3.10;;;;;;;10.17;72.21;98982.03;5007723;28;20041;-82
2022/11/05 11:51:43;;;;;;;9.27;2.95;;;;;;;10.43;71.13;98993.91;5009019;28;20402;-82
2022/11/05 11:54:20;;;;;;;5.82;2.58;;;;;;;10.34;72.16;98985.50;5027334;28;20021;-82
2022/11/05 11:56:47;;;;;;;8.60;3.95;;;;;;;10.24;72.26;98985.31;5026375;28;21782;-82
2022/11/05 11:59:29;;;;;;;9.70;3.22;;;;;;;10.10;72.20;98975.19;5024986;28;20037;-82
2022/11/05 12:01:54;;;;;;;8.50;2.75;;;;;;;10.24;72.00;98979.97;5026358;28;20047;-82
2022/11/05 12:04:43;;;;;;;8.77;3.25;;;;;;;10.25;72.02;98983.47;5006407;28;20053;-82
2022/11/05 12:07:13;;;;;;;7.05;3.42;;;;;;;10.12;71.96;98976.59;5008430;28;20147;-82
2022/11/05 12:09:57;;;;;;;8.50;3.95;;;;;;;10.27;71.41;98981.34;5025177;28;20017;-82
2022/11/05 12:12:30;;;;;;;7.00;2.92;;;;;;;10.20;71.39;98962.84;5025202;28;20108;-82
2022/11/05 12:15:20;;;;;;;12.13;2.85;;;;;;;10.16;71.66;98951.06;5024793;28;20856;-82
2022/11/05 12:18:08;;;;;;;11.68;3.60;;;;;;;10.50;71.25;98979.34;5005707;28;20022;-83
2022/11/05 12:21:06;;;;;;;6.15;2.70;;;;;;;10.42;70.08;98973.59;5024755;28;20025;-82
2022/11/05 12:24:09;;;;;;;4.97;2.78;;;;;;;10.49;69.65;98967.03;5009562;28;20025;-82
2022/11/05 12:26:53;;;;;;;7.00;3.05;;;;;;;10.44;68.99;98942.16;5022417;28;20041;-82